Santa Rosa de Rio Primero, Argentina
Current Conditions -  °F | °C
As of 2:00 AM on Tuesday 21 Oct 2014 (Local Time) from SACO Reporting Station
Clear Clear  
Wind Chill: 59°   Ceiling: Unl
Heat Index: 59°   Visibility: 6mi
Dew Point: 52°   Wind: 7mph
Humidity: 77%   Direction: 360°N
Pressure: 30.12"   Gusts: NA
Location:  31.15°S, 63.38°W
Report Text: SACO 210500Z 36006KT CAVOK 15/11 Q1020
Loading
Personal Weather Stations






























Interactive Weather Map
Tropical Storm Tracking
New forecast layout! Learn more

10-Day Weather Forecast

Advertisements
Track Severe Weather on mobile